Time;durP1;ratioP1;P1;durP2;ratioP2;P2;SDS_P1;SDS_P2;PMS_P1;PMS_P2;Temp;Humidity;BMP_temperature;BMP_pressure;BME280_temperature;BME280_humidity;BME280_pressure;Samples;Min_cycle;Max_cycle;Signal;HPM_P1;HPM_P2
2022/05/02 00:00:17;;;;;;;10.77;6.60;;;;;;;9.68;58.42;100960.70;1703046;84;21026;-77
2022/05/02 00:02:46;;;;;;;9.60;6.07;;;;;;;9.71;58.44;100959.77;1702334;83;20998;-77
2022/05/02 00:05:13;;;;;;;10.20;6.37;;;;;;;9.74;58.61;100960.55;1702406;84;21518;-81
2022/05/02 00:07:41;;;;;;;11.50;6.13;;;;;;;9.77;58.74;100956.99;1699513;83;21563;-77
2022/05/02 00:10:09;;;;;;;10.00;6.23;;;;;;;9.78;58.84;100955.66;1699831;84;21168;-84
2022/05/02 00:12:36;;;;;;;10.70;6.70;;;;;;;9.80;59.02;100946.44;1695551;83;21196;-77
2022/05/02 00:15:05;;;;;;;9.53;6.33;;;;;;;9.80;58.78;100947.75;1697719;84;21057;-78
2022/05/02 00:20:17;;;;;;;8.97;6.60;;;;;;;9.81;59.04;100946.88;1690253;84;21105;-81
2022/05/02 00:22:47;;;;;;;9.90;6.67;;;;;;;9.83;59.26;100940.66;1696522;83;21128;-77
2022/05/02 00:25:14;;;;;;;8.83;6.60;;;;;;;9.83;59.30;100938.50;1700550;83;21057;-78
2022/05/02 00:27:42;;;;;;;12.63;6.57;;;;;;;9.84;59.54;100937.63;1701281;83;20979;-78
2022/05/02 00:30:12;;;;;;;9.77;6.80;;;;;;;9.85;59.64;100933.24;1700295;84;21054;-78
2022/05/02 00:32:40;;;;;;;8.35;6.55;;;;;;;9.86;59.66;100932.33;1704110;83;21038;-77
2022/05/02 00:35:09;;;;;;;9.77;7.33;;;;;;;9.87;59.76;100933.62;1705255;83;21968;-77
2022/05/02 00:37:38;;;;;;;11.33;6.67;;;;;;;9.89;59.92;100937.48;1702383;84;20880;-77
2022/05/02 00:40:11;;;;;;;10.60;7.27;;;;;;;9.89;59.94;100934.87;1689393;83;21113;-77
2022/05/02 00:42:41;;;;;;;11.33;6.57;;;;;;;9.86;59.62;100938.42;1698621;84;21038;-77
2022/05/02 00:45:11;;;;;;;11.35;6.58;;;;;;;9.85;59.38;100936.72;1701107;83;21355;-77
2022/05/02 00:47:38;;;;;;;11.70;7.05;;;;;;;9.77;59.39;100936.05;1679540;84;21126;-77
2022/05/02 00:50:10;;;;;;;10.90;7.17;;;;;;;9.73;59.45;100936.58;1693236;83;21034;-77
2022/05/02 00:52:38;;;;;;;10.47;6.93;;;;;;;9.70;59.54;100926.19;1701530;83;21046;-77
2022/05/02 00:55:06;;;;;;;11.67;7.23;;;;;;;9.69;59.87;100926.22;1701378;84;21124;-84
2022/05/02 00:57:34;;;;;;;9.70;6.27;;;;;;;9.64;60.12;100925.02;1700935;83;21291;-77
2022/05/02 01:00:03;;;;;;;10.27;6.80;;;;;;;9.61;60.17;100930.33;1694353;83;21183;-77
2022/05/02 01:02:30;;;;;;;9.77;6.93;;;;;;;9.58;60.18;100929.09;1703911;83;21066;-77
2022/05/02 01:04:57;;;;;;;11.00;6.87;;;;;;;9.57;60.11;100933.93;1700856;83;21068;-77
2022/05/02 01:07:24;;;;;;;11.07;7.10;;;;;;;9.52;60.06;100931.41;1700095;84;21029;-77
2022/05/02 01:09:53;;;;;;;11.87;7.63;;;;;;;9.46;59.97;100925.48;1695347;83;21176;-82
2022/05/02 01:12:26;;;;;;;8.87;6.27;;;;;;;9.38;59.97;100927.81;1684648;83;21183;-86
2022/05/02 01:14:57;;;;;;;9.97;7.13;;;;;;;9.35;60.23;100930.52;1696816;83;21659;-77
2022/05/02 01:17:24;;;;;;;12.18;7.55;;;;;;;9.31;60.34;100921.45;1701916;83;21547;-77
2022/05/02 01:19:51;;;;;;;12.07;7.00;;;;;;;9.27;60.34;100923.74;1701445;83;21093;-77
2022/05/02 01:22:18;;;;;;;12.10;7.67;;;;;;;9.26;60.55;100923.34;1698119;83;21062;-77
2022/05/02 01:24:48;;;;;;;10.13;6.93;;;;;;;9.22;60.37;100921.67;1693846;83;21323;-77
2022/05/02 01:27:16;;;;;;;12.88;7.67;;;;;;;9.19;60.42;100920.44;1703115;83;21037;-77
2022/05/02 01:29:45;;;;;;;10.23;7.47;;;;;;;9.13;60.42;100918.83;1698263;84;21483;-77
2022/05/02 01:32:15;;;;;;;8.20;7.10;;;;;;;9.06;60.30;100921.16;1692265;84;20902;-77
2022/05/02 01:34:43;;;;;;;14.43;8.00;;;;;;;9.00;60.41;100916.06;1702956;83;21520;-77
2022/05/02 01:37:12;;;;;;;11.40;6.93;;;;;;;8.94;60.52;100915.76;1704730;83;21289;-77
2022/05/02 01:39:42;;;;;;;12.30;7.70;;;;;;;8.90;60.77;100911.50;1700904;83;21018;-77
2022/05/02 01:42:12;;;;;;;12.35;7.87;;;;;;;8.86;60.92;100913.30;1701729;83;21756;-79
2022/05/02 01:44:39;;;;;;;11.73;8.25;;;;;;;8.80;60.91;100910.83;1701251;83;21061;-78
2022/05/02 01:47:08;;;;;;;11.97;8.20;;;;;;;8.71;60.82;100910.58;1693239;84;22132;-77
2022/05/02 01:49:36;;;;;;;15.83;8.33;;;;;;;8.61;60.70;100917.34;1702658;84;21149;-77
2022/05/02 01:52:03;;;;;;;11.33;8.30;;;;;;;8.45;60.83;100916.36;1700952;83;21017;-84
2022/05/02 01:54:30;;;;;;;15.40;8.20;;;;;;;8.31;61.01;100924.85;1697277;84;21650;-77
2022/05/02 01:56:57;;;;;;;12.30;8.43;;;;;;;8.20;61.21;100926.39;1698345;83;21073;-76
2022/05/02 01:59:24;;;;;;;10.77;8.00;;;;;;;8.11;61.48;100926.99;1717926;82;20997;-83
2022/05/02 02:01:51;;;;;;;11.10;8.13;;;;;;;8.04;61.56;100927.11;1694168;84;21119;-78
2022/05/02 02:07:05;;;;;;;12.87;8.33;;;;;;;7.87;61.89;100920.45;1731244;82;21008;-77
2022/05/02 02:09:33;;;;;;;12.83;8.07;;;;;;;7.77;62.02;100920.62;1690136;84;21518;-77
2022/05/02 02:12:00;;;;;;;12.20;8.53;;;;;;;7.70;62.27;100920.74;1661669;85;21047;-77
2022/05/02 02:14:27;;;;;;;14.17;8.53;;;;;;;7.63;62.46;100914.78;1711769;82;21204;-76
2022/05/02 02:16:54;;;;;;;13.93;8.80;;;;;;;7.62;62.88;100916.09;1699814;84;21020;-76
2022/05/02 02:19:21;;;;;;;13.47;7.97;;;;;;;7.62;63.00;100917.40;1666526;85;21174;-77
2022/05/02 02:21:48;;;;;;;12.10;8.90;;;;;;;7.58;62.99;100918.75;1678669;84;21019;-76
2022/05/02 02:24:15;;;;;;;12.77;9.60;;;;;;;7.57;62.99;100920.11;1730360;82;21316;-77
2022/05/02 02:26:43;;;;;;;14.20;9.13;;;;;;;7.53;63.01;100915.36;1691484;84;21190;-77
2022/05/02 02:29:10;;;;;;;14.70;10.03;;;;;;;7.49;63.16;100915.45;1693972;84;21060;-77
2022/05/02 02:31:37;;;;;;;17.80;10.37;;;;;;;7.46;63.16;100911.14;1722861;81;21225;-77
2022/05/02 02:34:04;;;;;;;16.90;11.30;;;;;;;7.43;63.32;100912.92;1713951;82;21011;-77
2022/05/02 02:36:31;;;;;;;14.90;10.50;;;;;;;7.40;63.41;100913.86;1726327;82;21044;-77
2022/05/02 02:38:58;;;;;;;14.20;10.13;;;;;;;7.38;63.46;100907.80;1728712;82;21095;-77
2022/05/02 02:41:25;;;;;;;12.70;10.13;;;;;;;7.35;63.57;100907.84;1732427;82;21022;-77
2022/05/02 02:43:53;;;;;;;14.00;9.97;;;;;;;7.33;63.77;100910.46;1723487;82;21063;-81
2022/05/02 02:46:20;;;;;;;14.67;10.37;;;;;;;7.30;63.78;100914.87;1729863;82;20989;-77
2022/05/02 02:48:48;;;;;;;15.80;11.63;;;;;;;7.26;63.80;100917.98;1680545;84;21118;-77
2022/05/02 02:51:15;;;;;;;16.87;10.40;;;;;;;7.23;63.91;100919.30;1643380;86;21922;-77
2022/05/02 02:53:42;;;;;;;15.63;11.13;;;;;;;7.21;63.98;100921.09;1723236;81;21043;-76
2022/05/02 02:56:09;;;;;;;15.77;9.37;;;;;;;7.19;64.04;100919.39;1734631;81;21154;-77
2022/05/02 02:58:36;;;;;;;12.57;8.93;;;;;;;7.15;64.29;100914.67;1730811;82;21024;-77
2022/05/02 03:01:03;;;;;;;11.77;8.90;;;;;;;7.13;64.42;100917.28;1725716;82;21015;-77
2022/05/02 03:03:31;;;;;;;13.03;9.17;;;;;;;7.11;64.62;100908.63;1693544;84;21292;-77
2022/05/02 03:06:04;;;;;;;14.47;9.40;;;;;;;7.05;64.64;100921.75;1689303;83;21178;-76
2022/05/02 03:08:36;;;;;;;14.40;9.63;;;;;;;7.01;64.77;100919.20;1689498;84;21087;-77
2022/05/02 03:11:03;;;;;;;12.73;8.90;;;;;;;6.95;64.83;100916.23;1693213;83;21059;-78
2022/05/02 03:13:31;;;;;;;12.00;8.97;;;;;;;6.90;64.98;100920.64;1696702;84;21044;-77
2022/05/02 03:15:58;;;;;;;15.90;9.93;;;;;;;6.85;65.12;100918.13;1664537;85;21165;-77
2022/05/02 03:18:25;;;;;;;15.00;10.17;;;;;;;6.79;65.25;100920.81;1722886;82;21020;-77
2022/05/02 03:20:52;;;;;;;15.13;10.33;;;;;;;6.76;65.40;100922.58;1727939;82;21005;-85
2022/05/02 03:23:20;;;;;;;20.97;12.97;;;;;;;6.70;65.53;100923.06;1725749;81;21536;-76
2022/05/02 03:25:47;;;;;;;30.30;19.10;;;;;;;6.68;65.79;100921.39;1720365;82;21327;-77
2022/05/02 03:28:15;;;;;;;31.60;19.43;;;;;;;6.68;65.95;100922.25;1726075;82;21272;-77
2022/05/02 03:30:42;;;;;;;30.43;19.93;;;;;;;6.67;66.02;100920.50;1730430;82;21503;-77
2022/05/02 03:33:09;;;;;;;26.93;17.77;;;;;;;6.67;66.26;100922.25;1726460;82;21534;-77
2022/05/02 03:35:36;;;;;;;26.73;17.10;;;;;;;6.68;66.35;100918.79;1730830;82;21017;-77
2022/05/02 03:38:03;;;;;;;24.47;16.70;;;;;;;6.67;66.54;100921.81;1728469;81;21048;-77
2022/05/02 03:40:30;;;;;;;26.80;18.43;;;;;;;6.72;66.63;100920.46;1720535;81;21134;-77
2022/05/02 03:42:57;;;;;;;17.87;12.93;;;;;;;6.75;66.74;100913.91;1726044;82;21007;-78
2022/05/02 03:45:24;;;;;;;21.37;13.27;;;;;;;6.77;66.57;100916.05;1717461;82;21011;-77
2022/05/02 03:47:51;;;;;;;18.10;11.83;;;;;;;6.80;66.66;100919.06;1728299;81;21118;-76
2022/05/02 03:50:18;;;;;;;19.17;11.70;;;;;;;6.82;66.64;100922.52;1721216;82;21050;-77
2022/05/02 03:52:45;;;;;;;14.80;11.03;;;;;;;6.84;66.75;100919.43;1730028;82;21854;-77
2022/05/02 03:55:12;;;;;;;13.43;10.23;;;;;;;6.88;66.81;100918.52;1726276;82;21498;-77
2022/05/02 03:57:39;;;;;;;12.57;9.87;;;;;;;6.91;66.87;100925.84;1696604;84;21488;-78
2022/05/02 04:00:08;;;;;;;15.40;10.13;;;;;;;6.92;66.66;100923.65;1666389;85;21040;-77
2022/05/02 04:02:41;;;;;;;17.03;10.37;;;;;;;6.95;66.64;100929.71;1729707;82;21052;-77
2022/05/02 04:05:09;;;;;;;16.40;9.53;;;;;;;6.97;66.62;100926.66;1727609;81;21912;-77
2022/05/02 04:07:36;;;;;;;13.60;10.13;;;;;;;6.98;66.55;100925.76;1693870;83;21464;-77
2022/05/02 04:10:05;;;;;;;15.43;9.93;;;;;;;7.00;66.79;100927.91;1668554;85;21030;-77
2022/05/02 04:12:37;;;;;;;16.13;10.33;;;;;;;7.03;66.76;100927.86;1671590;85;21597;-77
2022/05/02 04:15:12;;;;;;;13.30;9.27;;;;;;;7.06;66.78;100932.58;1663135;85;21906;-77
2022/05/02 04:17:40;;;;;;;17.20;10.07;;;;;;;7.10;67.02;100939.49;1674248;85;21210;-77
2022/05/02 04:20:09;;;;;;;17.37;10.27;;;;;;;7.13;66.99;100944.66;1664186;85;21530;-77
2022/05/02 04:22:38;;;;;;;17.47;11.43;;;;;;;7.20;67.16;100934.99;1662364;83;21571;-77
2022/05/02 04:25:06;;;;;;;15.77;10.47;;;;;;;7.25;67.24;100933.19;1664805;85;21067;-78
2022/05/02 04:27:33;;;;;;;15.83;11.00;;;;;;;7.33;67.30;100924.80;1671136;85;21059;-77
2022/05/02 04:30:01;;;;;;;16.03;11.00;;;;;;;7.38;67.33;100926.91;1727367;82;21495;-77
2022/05/02 04:32:28;;;;;;;14.90;10.60;;;;;;;7.43;67.28;100928.15;1727571;82;21502;-77
2022/05/02 04:34:56;;;;;;;12.70;10.07;;;;;;;7.49;67.34;100928.05;1727348;82;21484;-77
2022/05/02 04:37:23;;;;;;;14.53;10.77;;;;;;;7.57;67.45;100931.39;1726065;81;21012;-77
2022/05/02 04:39:50;;;;;;;16.50;12.00;;;;;;;7.66;67.54;100938.66;1724945;82;21641;-77
2022/05/02 04:42:16;;;;;;;20.03;11.73;;;;;;;7.74;67.61;100931.11;1689764;83;21107;-85
2022/05/02 04:44:44;;;;;;;18.27;11.37;;;;;;;7.85;67.68;100930.08;1723077;82;21037;-77
2022/05/02 04:47:10;;;;;;;15.73;11.67;;;;;;;7.96;67.63;100932.05;1729433;82;21571;-74
2022/05/02 04:49:38;;;;;;;20.33;11.87;;;;;;;8.08;67.60;100933.58;1727501;82;21068;-78
2022/05/02 04:52:05;;;;;;;16.70;11.43;;;;;;;8.17;67.53;100933.40;1730947;82;21035;-80
2022/05/02 04:54:32;;;;;;;14.63;11.40;;;;;;;8.24;67.46;100939.79;1717734;82;21175;-78
2022/05/02 04:56:59;;;;;;;16.43;12.13;;;;;;;8.34;67.39;100939.61;1718396;82;21039;-78
2022/05/02 04:59:26;;;;;;;16.03;11.63;;;;;;;8.41;67.38;100936.03;1726400;82;21020;-81
2022/05/02 05:01:53;;;;;;;16.30;12.17;;;;;;;8.49;67.31;100931.52;1717122;82;21062;-77
2022/05/02 05:04:20;;;;;;;20.57;13.00;;;;;;;8.59;67.26;100938.30;1722995;82;21293;-77
2022/05/02 05:06:47;;;;;;;19.53;12.97;;;;;;;8.66;67.20;100925.95;1717758;82;21991;-90
2022/05/02 05:09:14;;;;;;;18.23;12.50;;;;;;;8.75;67.20;100929.66;1724374;82;21000;-77
2022/05/02 05:12:13;;;;;;;17.33;12.77;;;;;;;8.82;67.20;100927.34;1720780;82;21067;-77
2022/05/02 05:18:24;;;;;;;17.63;13.03;;;;;;;8.99;67.13;100926.98;1709711;82;21099;-78
2022/05/02 05:20:59;;;;;;;18.30;12.73;;;;;;;9.08;67.08;100926.77;1730505;82;21941;-77
2022/05/02 05:23:34;;;;;;;20.10;13.17;;;;;;;9.14;66.89;100920.11;1716039;82;21001;-76
2022/05/02 05:26:33;;;;;;;18.10;12.30;;;;;;;9.21;66.83;100916.05;1712462;82;21099;-77
2022/05/02 05:29:07;;;;;;;17.20;12.53;;;;;;;9.26;66.69;100916.80;1723417;82;21044;-77
2022/05/02 05:31:42;;;;;;;21.00;13.60;;;;;;;9.29;66.59;100923.27;1684603;82;21058;-81
2022/05/02 05:34:27;;;;;;;20.00;12.27;;;;;;;9.32;66.65;100919.27;1708277;82;21213;-77
2022/05/02 05:37:28;;;;;;;18.00;12.83;;;;;;;9.36;66.66;100924.37;1723805;82;21013;-76
2022/05/02 05:40:39;;;;;;;16.00;12.30;;;;;;;9.40;66.54;100921.25;1683605;85;21706;-77
2022/05/02 05:43:39;;;;;;;17.17;13.03;;;;;;;9.49;66.52;100921.48;1669892;84;21534;-76
2022/05/02 05:46:38;;;;;;;17.17;12.33;;;;;;;9.53;66.39;100917.88;1665267;84;21091;-76
2022/05/02 05:49:19;;;;;;;18.43;11.97;;;;;;;9.57;66.39;100909.92;1675575;84;21702;-76
2022/05/02 05:51:50;;;;;;;15.87;12.13;;;;;;;9.61;66.24;100912.86;1668918;84;21006;-77
2022/05/02 05:54:40;;;;;;;15.57;12.27;;;;;;;9.65;66.25;100903.65;1663553;85;21142;-77
2022/05/02 05:57:44;;;;;;;17.77;12.80;;;;;;;9.69;66.20;100913.98;1665427;84;21154;-77
2022/05/02 06:00:14;;;;;;;17.30;12.00;;;;;;;9.76;66.44;100909.47;1672131;84;21179;-77
2022/05/02 06:03:16;;;;;;;18.37;12.10;;;;;;;9.99;66.36;100908.41;1676864;84;21115;-77
2022/05/02 06:05:46;;;;;;;14.50;11.87;;;;;;;9.99;66.36;100908.41;1675898;84;21099;-78
2022/05/02 06:08:22;;;;;;;17.63;11.70;;;;;;;10.12;66.32;100914.19;1678750;84;21092;-76
2022/05/02 06:10:54;;;;;;;15.80;11.93;;;;;;;10.24;66.42;100919.54;1660808;85;21139;-77
2022/05/02 06:13:25;;;;;;;16.10;11.60;;;;;;;10.36;66.34;100923.16;1681593;84;21098;-75
2022/05/02 06:18:42;;;;;;;15.87;12.20;;;;;;;10.58;65.94;100929.11;1718526;82;21059;-75
2022/05/02 06:21:10;;;;;;;17.30;12.10;;;;;;;10.68;65.72;100925.33;1717637;82;21004;-76
2022/05/02 06:23:45;;;;;;;15.10;11.57;;;;;;;10.79;65.77;100927.18;1732865;82;21099;-78
2022/05/02 06:26:11;;;;;;;16.83;12.43;;;;;;;10.96;65.83;100927.14;1724329;82;21517;-79
2022/05/02 06:28:44;;;;;;;16.53;11.73;;;;;;;11.12;65.69;100932.33;1721554;82;21104;-78
2022/05/02 06:31:19;;;;;;;16.47;11.57;;;;;;;11.21;65.41;100929.86;1727402;82;22181;-80
2022/05/02 06:33:50;;;;;;;14.47;11.43;;;;;;;11.29;65.26;100923.47;1718935;82;21047;-82
2022/05/02 06:36:50;;;;;;;15.17;12.20;;;;;;;11.38;65.14;100920.53;1726998;82;21064;-78
2022/05/02 06:39:34;;;;;;;13.95;11.75;;;;;;;11.49;64.87;100928.07;1722141;82;21514;-78
2022/05/02 06:42:26;;;;;;;14.77;11.03;;;;;;;11.61;64.81;100929.43;1730466;82;22005;-76
2022/05/02 06:45:38;;;;;;;16.73;12.47;;;;;;;11.74;64.68;100933.83;1709906;82;21028;-76
2022/05/02 06:48:22;;;;;;;18.47;11.40;;;;;;;11.86;64.38;100933.91;1731490;82;21167;-77
2022/05/02 06:50:58;;;;;;;15.00;11.17;;;;;;;11.99;64.49;100931.27;1719837;82;21066;-77
2022/05/02 06:53:37;;;;;;;16.10;11.03;;;;;;;12.12;64.11;100935.19;1726487;82;21044;-78
2022/05/02 06:56:18;;;;;;;17.23;11.83;;;;;;;12.23;63.92;100933.05;1726262;82;21275;-78
2022/05/02 06:59:02;;;;;;;17.27;11.23;;;;;;;12.33;63.68;100927.45;1720966;82;21537;-78
2022/05/02 07:01:53;;;;;;;15.23;10.85;;;;;;;12.41;63.48;100924.09;1726731;82;21139;-78
2022/05/02 07:04:48;;;;;;;15.38;10.98;;;;;;;12.50;63.39;100920.69;1727449;82;20993;-86
2022/05/02 07:07:32;;;;;;;14.80;10.55;;;;;;;12.61;63.22;100920.72;1729622;82;21374;-79
2022/05/02 07:10:08;;;;;;;13.20;10.45;;;;;;;12.67;62.88;100926.63;1716727;82;21145;-79
2022/05/02 07:13:03;;;;;;;14.07;9.95;;;;;;;12.75;62.81;100923.72;1723624;82;21067;-78
2022/05/02 07:15:44;;;;;;;14.47;9.93;;;;;;;12.81;62.61;100923.48;1719101;82;21583;-77
2022/05/02 07:18:36;;;;;;;16.55;10.05;;;;;;;12.90;62.58;100917.86;1724145;82;21032;-82
2022/05/02 07:21:33;;;;;;;14.03;10.10;;;;;;;13.00;62.40;100921.44;1720154;82;21031;-76
2022/05/02 07:24:26;;;;;;;17.23;10.32;;;;;;;13.10;62.45;100914.45;1709949;82;21970;-76
2022/05/02 07:27:10;;;;;;;14.38;9.48;;;;;;;13.29;62.39;100921.20;1727001;82;21525;-77
2022/05/02 07:29:40;;;;;;;12.53;9.65;;;;;;;13.42;62.13;100916.30;1701149;82;21067;-77
2022/05/02 07:32:10;;;;;;;12.93;8.98;;;;;;;13.57;61.83;100916.13;1717115;82;21114;-80
2022/05/02 07:34:39;;;;;;;10.85;7.95;;;;;;;13.70;61.55;100917.34;1732562;82;21116;-79
2022/05/02 07:37:06;;;;;;;13.18;8.35;;;;;;;13.83;61.18;100911.95;1731902;82;21129;-77
2022/05/02 07:39:37;;;;;;;10.20;7.28;;;;;;;13.98;61.13;100907.80;1729736;82;21179;-78
2022/05/02 07:42:05;;;;;;;10.78;7.53;;;;;;;14.15;60.66;100911.48;1722578;82;20989;-78
2022/05/02 07:44:35;;;;;;;12.75;7.80;;;;;;;14.31;60.26;100909.04;1729788;82;20989;-81
2022/05/02 07:47:04;;;;;;;11.43;7.27;;;;;;;14.45;59.92;100908.80;1736083;82;21422;-78
2022/05/02 07:49:34;;;;;;;9.35;6.47;;;;;;;14.62;59.55;100906.75;1729520;82;21125;-83
2022/05/02 07:52:02;;;;;;;9.00;6.58;;;;;;;14.77;59.35;100903.89;1689089;82;21094;-77
2022/05/02 07:54:33;;;;;;;9.20;6.45;;;;;;;14.95;58.95;100908.28;1681507;83;21119;-77
2022/05/02 07:57:03;;;;;;;9.98;6.30;;;;;;;15.11;58.65;100897.86;1688952;82;21044;-77
2022/05/02 07:59:40;;;;;;;7.83;6.00;;;;;;;15.29;58.59;100896.58;1716798;82;20988;-77
2022/05/02 08:02:08;;;;;;;9.05;6.25;;;;;;;15.47;58.25;100900.12;1708932;83;21110;-77
2022/05/02 08:04:37;;;;;;;9.58;6.80;;;;;;;15.62;57.61;100901.98;1714539;83;21091;-77
2022/05/02 08:07:17;;;;;;;9.35;6.55;;;;;;;15.74;57.19;100900.09;1705311;83;21104;-80
2022/05/02 08:10:25;;;;;;;8.28;5.65;;;;;;;15.87;57.10;100898.13;1697559;83;20996;-77
2022/05/02 08:12:59;;;;;;;10.10;6.10;;;;;;;16.03;56.56;100897.27;1701811;82;21000;-77
2022/05/02 08:15:38;;;;;;;11.33;6.22;;;;;;;16.20;56.02;100901.67;1696012;83;21188;-77
2022/05/02 08:18:22;;;;;;;10.35;6.53;;;;;;;16.33;55.57;100905.86;1699910;83;20960;-81
2022/05/02 08:21:00;;;;;;;10.65;6.05;;;;;;;16.41;55.43;100905.45;1692799;84;20976;-77
2022/05/02 08:27:17;;;;;;;12.28;6.97;;;;;;;16.56;54.81;100898.48;1691399;83;21071;-77
2022/05/02 08:30:11;;;;;;;9.73;5.85;;;;;;;16.76;54.58;100903.53;1693901;83;21106;-81
2022/05/02 08:32:46;;;;;;;8.13;6.08;;;;;;;16.86;53.88;100901.28;1698788;83;21056;-76
2022/05/02 08:35:23;;;;;;;6.72;5.03;;;;;;;17.00;53.81;100896.06;1697521;83;21043;-79
2022/05/02 08:38:36;;;;;;;9.20;5.03;;;;;;;17.09;53.26;100895.53;1690837;83;21435;-77
2022/05/02 08:41:34;;;;;;;52.20;16.42;;;;;;;17.20;52.70;100892.76;1698977;84;21041;-77
2022/05/02 08:44:53;;;;;;;9.03;5.45;;;;;;;17.34;52.50;100889.70;1703720;83;21567;-77
2022/05/02 08:47:58;;;;;;;9.85;5.20;;;;;;;17.49;52.23;100894.60;1700350;83;20994;-78
2022/05/02 08:50:53;;;;;;;12.73;5.12;;;;;;;17.63;51.66;100884.52;1696027;84;21199;-77
2022/05/02 08:53:28;;;;;;;7.28;5.28;;;;;;;17.76;51.27;100888.16;1692375;84;21126;-77
2022/05/02 08:56:35;;;;;;;8.25;5.03;;;;;;;17.89;50.88;100860.93;1664822;85;21080;-77
2022/05/02 08:59:20;;;;;;;7.92;4.70;;;;;;;18.03;51.06;100884.81;1699857;84;21579;-77
2022/05/02 09:02:01;;;;;;;9.48;4.92;;;;;;;18.25;50.13;100889.19;1698316;84;21685;-77
2022/05/02 09:05:09;;;;;;;8.88;4.92;;;;;;;18.41;49.74;100886.45;1662664;85;21037;-78
2022/05/02 09:07:54;;;;;;;8.90;5.37;;;;;;;18.52;49.30;100888.92;1627219;86;21134;-77
2022/05/02 09:10:35;;;;;;;8.30;5.40;;;;;;;18.60;48.74;100882.18;1636054;86;21097;-77
2022/05/02 09:13:30;;;;;;;10.35;4.58;;;;;;;18.65;48.27;100882.75;1638723;86;21080;-76
2022/05/02 09:16:37;;;;;;;10.25;5.50;;;;;;;18.73;48.34;100888.88;1646434;86;21141;-78
2022/05/02 09:19:38;;;;;;;10.65;6.35;;;;;;;18.90;48.21;100887.83;1631221;86;21549;-78
2022/05/02 09:22:47;;;;;;;8.95;5.65;;;;;;;19.06;47.70;100881.91;1632334;86;21081;-79
2022/05/02 09:25:35;;;;;;;7.47;6.47;;;;;;;19.00;47.13;100875.67;1646852;83;21022;-77
2022/05/02 09:28:14;;;;;;;8.68;5.87;;;;;;;19.05;47.39;100881.55;1653188;85;21149;-76
2022/05/02 09:31:10;;;;;;;9.93;5.75;;;;;;;19.23;46.99;100870.17;1642722;86;21146;-78
2022/05/02 09:33:57;;;;;;;10.58;5.83;;;;;;;19.27;46.65;100870.84;1680351;84;21109;-80
2022/05/02 09:36:46;;;;;;;8.63;6.08;;;;;;;19.37;46.76;100863.95;1681681;84;21580;-79
2022/05/02 09:39:27;;;;;;;9.95;6.30;;;;;;;19.51;46.44;100867.02;1683775;84;21050;-78
2022/05/02 09:42:25;;;;;;;8.58;6.05;;;;;;;19.62;46.54;100864.52;1682998;84;21458;-78
2022/05/02 09:51:22;;;;;;;9.13;6.03;;;;;;;20.16;45.48;100860.37;1689170;82;21520;-79
2022/05/02 09:54:10;;;;;;;7.00;6.20;;;;;;;20.26;44.76;100855.27;1707497;82;21036;-78
2022/05/02 09:56:42;;;;;;;8.13;5.55;;;;;;;20.37;44.32;100846.49;1692630;83;21141;-77
2022/05/02 09:59:30;;;;;;;6.80;4.87;;;;;;;20.47;44.33;100851.55;1718275;82;21619;-77
2022/05/02 10:02:07;;;;;;;8.38;5.50;;;;;;;20.67;44.47;100849.69;1716875;82;21051;-78
2022/05/02 10:05:06;;;;;;;7.28;5.45;;;;;;;20.86;43.95;100839.00;1692204;82;21010;-77
2022/05/02 10:07:42;;;;;;;7.00;5.15;;;;;;;21.02;43.55;100842.24;1704617;83;21001;-79
2022/05/02 10:10:13;;;;;;;5.90;5.30;;;;;;;21.22;43.14;100833.25;1673202;85;21125;-78
2022/05/02 10:13:17;;;;;;;7.30;4.75;;;;;;;21.43;42.77;100836.16;1668934;85;21062;-78
2022/05/02 10:16:11;;;;;;;8.15;5.08;;;;;;;21.59;42.54;100834.03;1704314;84;21053;-78
2022/05/02 10:18:57;;;;;;;7.05;4.83;;;;;;;21.75;41.99;100831.86;1604689;86;21018;-78
2022/05/02 10:21:33;;;;;;;7.85;5.50;;;;;;;21.96;41.76;100832.02;1669787;85;21571;-78
2022/05/02 10:24:40;;;;;;;7.87;5.35;;;;;;;22.07;41.21;100829.85;1692722;83;21153;-78
2022/05/02 10:27:48;;;;;;;8.28;5.17;;;;;;;22.24;40.97;100815.20;1672911;84;21108;-78
2022/05/02 10:30:24;;;;;;;11.08;5.67;;;;;;;22.43;40.85;100811.42;1634923;85;21544;-79
2022/05/02 10:32:56;;;;;;;7.65;5.20;;;;;;;22.72;40.44;100808.20;1697679;83;21639;-79
2022/05/02 10:35:27;;;;;;;7.85;5.08;;;;;;;22.86;39.73;100806.61;1688383;83;21024;-79
2022/05/02 10:38:09;;;;;;;8.08;5.20;;;;;;;23.04;39.58;100802.08;1694016;83;22025;-79
2022/05/02 10:40:42;;;;;;;6.33;4.62;;;;;;;23.20;39.24;100799.83;1663052;85;21106;-78
2022/05/02 10:43:12;;;;;;;7.03;4.80;;;;;;;23.37;38.79;100797.06;1665385;85;21213;-77
2022/05/02 10:45:41;;;;;;;8.60;4.47;;;;;;;23.52;38.45;100792.23;1702193;83;21052;-79
2022/05/02 10:48:16;;;;;;;6.00;4.58;;;;;;;23.70;38.19;100795.17;1694935;83;21288;-77
2022/05/02 10:51:00;;;;;;;5.85;4.72;;;;;;;23.92;38.13;100794.20;1700562;83;21203;-78
2022/05/02 10:53:48;;;;;;;6.70;4.53;;;;;;;24.31;37.93;100784.98;1662415;83;21099;-78
2022/05/02 10:56:38;;;;;;;6.42;4.62;;;;;;;24.44;37.01;100782.44;1710981;83;21652;-77
2022/05/02 10:59:08;;;;;;;8.00;4.05;;;;;;;24.49;36.69;100782.84;1694365;83;20972;-77
2022/05/02 11:02:08;;;;;;;8.50;4.10;;;;;;;24.58;36.48;100793.73;1699977;83;21056;-79
2022/05/02 11:05:08;;;;;;;6.53;4.42;;;;;;;24.70;36.16;100784.59;1698869;83;21335;-78
2022/05/02 11:08:06;;;;;;;6.55;4.62;;;;;;;24.81;35.57;100783.13;1701830;83;21099;-78
2022/05/02 11:10:45;;;;;;;5.00;4.20;;;;;;;24.84;35.28;100776.64;1654612;84;21005;-78
2022/05/02 11:13:23;;;;;;;6.37;4.37;;;;;;;25.00;35.07;100775.59;1633460;85;21574;-79
2022/05/02 11:16:17;;;;;;;8.85;4.55;;;;;;;25.09;34.86;100777.42;1682085;84;21059;-79
2022/05/02 11:22:41;;;;;;;6.47;4.20;;;;;;;25.38;34.10;100765.83;1651980;83;21256;-77
2022/05/02 11:25:22;;;;;;;5.37;4.30;;;;;;;25.52;34.01;100768.09;1689197;82;21018;-80
2022/05/02 11:28:11;;;;;;;7.85;4.47;;;;;;;25.58;33.51;100768.84;1693299;82;21045;-79
2022/05/02 11:30:49;;;;;;;5.67;4.30;;;;;;;25.64;33.22;100764.73;1690579;83;21819;-78
2022/05/02 11:33:34;;;;;;;6.60;3.60;;;;;;;25.79;33.21;100763.76;1694065;82;21120;-78
2022/05/02 11:36:05;;;;;;;5.28;3.87;;;;;;;25.89;33.36;100756.55;1683588;83;21077;-78
2022/05/02 11:38:46;;;;;;;8.30;3.87;;;;;;;26.05;33.25;100749.21;1692645;83;20994;-78
2022/05/02 11:41:21;;;;;;;6.33;3.62;;;;;;;26.11;32.89;100749.95;1691390;83;20939;-79
2022/05/02 11:43:52;;;;;;;7.50;4.70;;;;;;;26.08;32.16;100753.41;1689442;83;21054;-80
2022/05/02 11:46:28;;;;;;;6.28;4.17;;;;;;;26.14;32.38;100744.28;1686185;82;21222;-78
2022/05/02 11:49:24;;;;;;;7.10;3.95;;;;;;;26.16;31.83;100741.42;1684960;82;21455;-80
2022/05/02 11:51:53;;;;;;;5.42;4.25;;;;;;;26.19;31.97;100739.81;1694457;83;21082;-81
2022/05/02 11:54:37;;;;;;;5.33;4.05;;;;;;;26.43;32.12;100736.03;1680842;84;21007;-82
2022/05/02 11:57:30;;;;;;;7.03;4.42;;;;;;;26.62;31.78;100728.37;1688241;82;21049;-77
2022/05/02 12:00:14;;;;;;;6.12;3.45;;;;;;;26.66;31.43;100731.58;1714631;82;22134;-79
2022/05/02 12:02:56;;;;;;;9.43;4.30;;;;;;;26.78;31.20;100720.97;1719198;82;21103;-79
2022/05/02 12:05:34;;;;;;;5.97;4.03;;;;;;;26.93;30.95;100725.28;1720003;82;21586;-77
2022/05/02 12:08:04;;;;;;;7.28;4.90;;;;;;;26.90;30.66;100729.13;1712982;82;20937;-78
2022/05/02 12:10:45;;;;;;;6.35;4.65;;;;;;;26.95;30.41;100719.77;1725555;82;21028;-79
2022/05/02 12:13:20;;;;;;;5.37;4.58;;;;;;;26.90;30.37;100724.25;1716372;82;21113;-80
2022/05/02 12:16:00;;;;;;;8.35;5.00;;;;;;;26.97;29.95;100719.12;1728374;82;20907;-79
2022/05/02 12:18:50;;;;;;;6.70;4.33;;;;;;;26.93;30.02;100716.70;1728610;82;21060;-81
2022/05/02 12:21:34;;;;;;;5.03;4.50;;;;;;;27.07;29.70;100713.96;1727412;82;20944;-81
2022/05/02 12:24:04;;;;;;;7.60;4.03;;;;;;;27.06;29.40;100704.21;1730756;82;21065;-78
2022/05/02 12:26:33;;;;;;;;;;;;;;;27.16;29.33;100706.86;1715584;82;21101;-80
2022/05/02 12:29:04;;;;;;;4.78;3.40;;;;;;;27.26;29.39;100705.39;1692963;83;20145;-81